Terminal Aerodrome Forecast
Issued by NWS

Home | Current Version | Previous Version | Text Only | Print | Product List | Glossary On
Versions: 1 2 3 4 5 6 7 8 9 10 11 12 13 14 15
000
FTUS41 KPBZ 301100
TAFLBE
TAF
KLBE 301138Z 3012/0112 00000KT 4SM BR SKC
     FM301300 23004KT P6SM SCT100
     FM302000 27006KT 5SM -SHRA BR VCTS BKN050CB
     FM302300 31005KT P6SM BKN035=

USA.gov is the U.S. government's official web portal to all federal, state and local government web resources and services.